Time;durP1;ratioP1;P1;durP2;ratioP2;P2;SDS_P1;SDS_P2;PMS_P1;PMS_P2;Temp;Humidity;BMP_temperature;BMP_pressure;BME280_temperature;BME280_humidity;BME280_pressure;Samples;Min_cycle;Max_cycle;Signal;HPM_P1;HPM_P2
2021/12/08 00:01:30;;;;;;;12.67;3.50;;;;;;;;;;4972344;28;20031;-57
2021/12/08 00:03:57;;;;;;;10.50;3.57;;;;;;;;;;4976761;28;20031;-58
2021/12/08 00:06:24;;;;;;;5.97;3.30;;;;;;;;;;4987626;28;20085;-58
2021/12/08 00:09:06;;;;;;;7.73;3.77;;;;;;;;;;4996359;28;20026;-58
2021/12/08 00:14:18;;;;;;;7.13;3.00;;;;;;;;;;4995836;28;20088;-58
2021/12/08 00:16:45;;;;;;;11.60;3.03;;;;;;;;;;4991364;28;20026;-56
2021/12/08 00:19:12;;;;;;;12.00;3.87;;;;;;;;;;4975505;28;20039;-57
2021/12/08 00:21:39;;;;;;;9.13;3.10;;;;;;;;;;4971923;28;20046;-57
2021/12/08 00:24:07;;;;;;;7.80;3.33;;;;;;;;;;4971530;28;20074;-57
2021/12/08 00:26:35;;;;;;;8.20;4.03;;;;;;;;;;4976467;28;20031;-57
2021/12/08 00:29:03;;;;;;;16.77;5.23;;;;;;;;;;4976833;28;20035;-57
2021/12/08 00:31:30;;;;;;;6.57;2.90;;;;;;;;;;4994288;28;20042;-57
2021/12/08 00:33:57;;;;;;;9.10;3.80;;;;;;;;;;4995534;28;20037;-56
2021/12/08 00:36:38;;;;;;;7.87;3.27;;;;;;;;;;4996149;28;20030;-56
2021/12/08 00:39:06;;;;;;;26.13;4.53;;;;;;;;;;4991014;28;20062;-57
2021/12/08 00:41:33;;;;;;;9.33;4.23;;;;;;;;;;4991013;28;20030;-57
2021/12/08 00:44:00;;;;;;;8.17;3.80;;;;;;;;;;4990143;28;20023;-57
2021/12/08 00:46:27;;;;;;;7.00;3.03;;;;;;;;;;4990934;28;20185;-56
2021/12/08 00:48:53;;;;;;;21.43;5.43;;;;;;;;;;4994282;28;20022;-56
2021/12/08 00:51:20;;;;;;;12.17;4.70;;;;;;;;;;4995304;28;20389;-56
2021/12/08 00:53:47;;;;;;;16.50;9.10;;;;;;;;;;4995609;28;20420;-56
2021/12/08 00:56:14;;;;;;;8.97;4.03;;;;;;;;;;4976440;28;20501;-56
2021/12/08 00:58:41;;;;;;;15.03;4.83;;;;;;;;;;4976215;28;20031;-56
2021/12/08 01:01:09;;;;;;;10.37;3.80;;;;;;;;;;4971394;28;20098;-56
2021/12/08 01:03:37;;;;;;;10.70;4.57;;;;;;;;;;4971522;28;20026;-56
2021/12/08 01:06:04;;;;;;;9.10;3.40;;;;;;;;;;4987125;28;20492;-56
2021/12/08 01:08:31;;;;;;;6.73;2.93;;;;;;;;;;4977569;28;20414;-56
2021/12/08 01:11:00;;;;;;;12.67;4.07;;;;;;;;;;4983826;28;20034;-56
2021/12/08 01:13:28;;;;;;;13.27;4.37;;;;;;;;;;4995549;28;20050;-56
2021/12/08 01:15:56;;;;;;;7.03;3.30;;;;;;;;;;4995126;28;20496;-56
2021/12/08 01:18:23;;;;;;;6.50;3.97;;;;;;;;;;4995326;28;20026;-56
2021/12/08 01:20:52;;;;;;;6.47;3.53;;;;;;;;;;4986960;28;20081;-56
2021/12/08 01:23:19;;;;;;;6.73;3.33;;;;;;;;;;4981722;28;20058;-57
2021/12/08 01:25:46;;;;;;;12.10;4.90;;;;;;;;;;4990065;28;20533;-56
2021/12/08 01:28:13;;;;;;;25.20;5.53;;;;;;;;;;4989959;28;20015;-56
2021/12/08 01:30:40;;;;;;;18.23;6.83;;;;;;;;;;4990016;28;20114;-56
2021/12/08 01:33:07;;;;;;;15.30;8.73;;;;;;;;;;4985307;28;20478;-56
2021/12/08 01:35:34;;;;;;;12.10;6.77;;;;;;;;;;4975498;28;20026;-56
2021/12/08 01:38:01;;;;;;;11.60;5.63;;;;;;;;;;4975321;28;20437;-56
2021/12/08 01:40:27;;;;;;;10.53;4.30;;;;;;;;;;4975489;28;20030;-56
2021/12/08 01:42:57;;;;;;;8.23;3.20;;;;;;;;;;4975145;28;20110;-56
2021/12/08 01:48:12;;;;;;;19.57;6.00;;;;;;;;;;4990146;28;20045;-56
2021/12/08 01:50:40;;;;;;;8.90;4.00;;;;;;;;;;4978493;28;20033;-56
2021/12/08 01:53:08;;;;;;;6.53;3.70;;;;;;;;;;4970366;28;20049;-56
2021/12/08 01:55:35;;;;;;;8.40;5.20;;;;;;;;;;4973536;28;20027;-56
2021/12/08 01:58:02;;;;;;;10.83;5.83;;;;;;;;;;4974960;28;20050;-56
2021/12/08 02:00:31;;;;;;;15.57;6.67;;;;;;;;;;4981053;28;20034;-56
2021/12/08 02:02:58;;;;;;;9.90;4.87;;;;;;;;;;4993657;28;20044;-56
2021/12/08 02:05:25;;;;;;;14.10;4.37;;;;;;;;;;4987602;28;20042;-56
2021/12/08 02:07:52;;;;;;;10.87;4.50;;;;;;;;;;4970901;28;20514;-56
2021/12/08 02:10:19;;;;;;;9.07;4.30;;;;;;;;;;4969797;28;20173;-56
2021/12/08 02:12:46;;;;;;;11.63;4.30;;;;;;;;;;4969733;28;20093;-56
2021/12/08 02:15:14;;;;;;;8.00;3.87;;;;;;;;;;4973057;28;20038;-56
2021/12/08 02:17:41;;;;;;;7.47;4.07;;;;;;;;;;4992433;28;20030;-56
2021/12/08 02:20:10;;;;;;;19.63;3.80;;;;;;;;;;4993951;28;20022;-56
2021/12/08 02:22:37;;;;;;;7.43;3.57;;;;;;;;;;4993728;28;20092;-56
2021/12/08 02:25:05;;;;;;;9.83;4.10;;;;;;;;;;4994001;28;20030;-55
2021/12/08 02:27:35;;;;;;;6.43;3.10;;;;;;;;;;4986824;28;20027;-56
2021/12/08 02:30:13;;;;;;;10.67;3.53;;;;;;;;;;4970687;28;20039;-58
2021/12/08 02:49:25;;;;;;;6.63;3.27;;;;;;;;;;4933277;29;20047;-56
2021/12/08 02:51:54;;;;;;;9.27;3.10;;;;;;;;;;4968743;28;20156;-57
2021/12/08 02:54:23;;;;;;;8.50;3.10;;;;;;;;;;4969127;28;20085;-57
2021/12/08 02:56:55;;;;;;;6.47;3.57;;;;;;;;;;4969078;28;20097;-57
2021/12/08 02:59:24;;;;;;;21.93;4.97;;;;;;;;;;4968995;28;20054;-57
2021/12/08 03:01:53;;;;;;;5.50;3.47;;;;;;;;;;4970692;28;20123;-56
2021/12/08 03:04:23;;;;;;;8.23;3.70;;;;;;;;;;4985216;28;20033;-57
2021/12/08 03:06:52;;;;;;;16.43;5.90;;;;;;;;;;4993215;28;20049;-55
2021/12/08 03:09:23;;;;;;;7.40;4.30;;;;;;;;;;4993030;28;20042;-56
2021/12/08 03:11:52;;;;;;;7.43;3.50;;;;;;;;;;4993148;28;20112;-57
2021/12/08 03:14:25;;;;;;;5.53;3.43;;;;;;;;;;4990480;28;20034;-58
2021/12/08 03:16:56;;;;;;;8.43;3.00;;;;;;;;;;4974114;28;20027;-58
2021/12/08 03:19:26;;;;;;;11.43;4.13;;;;;;;;;;4968711;28;20030;-58
2021/12/08 03:21:58;;;;;;;10.80;3.80;;;;;;;;;;4968635;28;20034;-56
2021/12/08 03:24:36;;;;;;;6.20;3.47;;;;;;;;;;4971139;28;20023;-57
2021/12/08 03:32:36;;;;;;;7.27;3.47;;;;;;;;;;4984818;28;20113;-56
2021/12/08 03:35:04;;;;;;;8.70;3.93;;;;;;;;;;4992691;28;20031;-56
2021/12/08 03:37:33;;;;;;;14.37;4.20;;;;;;;;;;4986093;28;20041;-56
2021/12/08 03:40:01;;;;;;;8.17;3.23;;;;;;;;;;4968579;28;20062;-57
2021/12/08 03:42:30;;;;;;;5.13;2.70;;;;;;;;;;4968276;28;20501;-56
2021/12/08 03:45:01;;;;;;;8.87;3.47;;;;;;;;;;4968285;28;20155;-56
2021/12/08 03:47:29;;;;;;;8.10;3.40;;;;;;;;;;4972091;28;20038;-56
2021/12/08 03:50:00;;;;;;;9.17;3.07;;;;;;;;;;4974927;28;20029;-56
2021/12/08 03:52:27;;;;;;;9.27;3.17;;;;;;;;;;4992640;28;20126;-56
2021/12/08 03:54:54;;;;;;;7.73;2.43;;;;;;;;;;4992530;28;20034;-56
2021/12/08 03:57:20;;;;;;;7.67;3.00;;;;;;;;;;4992637;28;20022;-56
2021/12/08 03:59:47;;;;;;;10.43;3.70;;;;;;;;;;4987943;28;20034;-56
2021/12/08 04:02:14;;;;;;;8.97;2.80;;;;;;;;;;4981098;28;20026;-56
2021/12/08 04:04:46;;;;;;;6.77;3.83;;;;;;;;;;4967965;28;20022;-56
2021/12/08 04:07:14;;;;;;;7.70;2.70;;;;;;;;;;4968377;28;20149;-56
2021/12/08 04:09:43;;;;;;;5.27;2.87;;;;;;;;;;4971833;28;20031;-56
2021/12/08 04:12:12;;;;;;;12.63;3.30;;;;;;;;;;4977800;28;20045;-56
2021/12/08 04:14:41;;;;;;;8.40;2.53;;;;;;;;;;4992476;28;20023;-56
2021/12/08 04:17:12;;;;;;;7.40;2.50;;;;;;;;;;4992414;28;20469;-56
2021/12/08 04:19:39;;;;;;;6.83;2.60;;;;;;;;;;4992626;28;20093;-56
2021/12/08 04:22:11;;;;;;;5.43;2.33;;;;;;;;;;4987952;28;20401;-56
2021/12/08 04:24:39;;;;;;;5.97;2.83;;;;;;;;;;4979918;28;20486;-56
2021/12/08 04:27:08;;;;;;;6.80;3.03;;;;;;;;;;4968124;28;20027;-56
2021/12/08 04:29:37;;;;;;;7.20;3.23;;;;;;;;;;4967948;28;20443;-56
2021/12/08 04:32:05;;;;;;;15.87;3.37;;;;;;;;;;4971381;28;20026;-56
2021/12/08 04:34:33;;;;;;;7.13;2.67;;;;;;;;;;4972912;28;20101;-56
2021/12/08 04:37:04;;;;;;;12.77;3.37;;;;;;;;;;4980255;28;20034;-57
2021/12/08 04:39:44;;;;;;;7.87;3.00;;;;;;;;;;4992344;28;20031;-56
2021/12/08 04:42:15;;;;;;;8.03;3.03;;;;;;;;;;4992339;28;20355;-56
2021/12/08 04:44:57;;;;;;;;;;;;;;;;;;4989762;28;20057;-56
2021/12/08 04:47:33;;;;;;;11.57;2.33;;;;;;;;;;4990815;28;19957;-56
2021/12/08 05:00:56;;;;;;;4.00;2.50;;;;;;;;;;4980203;28;20097;-56
2021/12/08 05:03:50;;;;;;;5.27;2.53;;;;;;;;;;4994585;28;20105;-56
2021/12/08 05:09:26;;;;;;;3.30;2.20;;;;;;;;;;4990632;28;20140;-56
2021/12/08 05:11:58;;;;;;;4.73;2.30;;;;;;;;;;4986545;28;20049;-56
2021/12/08 05:14:28;;;;;;;5.63;2.40;;;;;;;;;;4988320;28;20110;-56
2021/12/08 05:16:57;;;;;;;5.37;2.37;;;;;;;;;;4994286;28;20061;-56
2021/12/08 05:19:26;;;;;;;4.53;2.60;;;;;;;;;;4995168;28;20023;-56
2021/12/08 05:21:58;;;;;;;5.70;2.40;;;;;;;;;;4995290;28;20032;-57
2021/12/08 05:24:32;;;;;;;4.80;2.20;;;;;;;;;;4980347;28;20460;-56
2021/12/08 05:27:15;;;;;;;5.13;2.10;;;;;;;;;;4975393;28;20482;-56
2021/12/08 05:29:43;;;;;;;4.93;2.30;;;;;;;;;;4970814;28;20034;-55
2021/12/08 05:32:10;;;;;;;5.43;2.50;;;;;;;;;;4953693;28;20027;-56
2021/12/08 05:34:38;;;;;;;3.77;1.93;;;;;;;;;;4970712;28;20110;-56
2021/12/08 05:37:05;;;;;;;6.13;2.47;;;;;;;;;;4989929;28;20041;-55
2021/12/08 05:39:32;;;;;;;6.80;2.60;;;;;;;;;;4994715;28;20466;-57
2021/12/08 05:42:02;;;;;;;4.23;2.10;;;;;;;;;;4994660;28;20109;-57
2021/12/08 05:44:29;;;;;;;7.77;2.70;;;;;;;;;;4994548;28;20029;-56
2021/12/08 05:46:58;;;;;;;5.70;2.57;;;;;;;;;;4990248;28;20173;-56
2021/12/08 05:49:25;;;;;;;3.57;2.00;;;;;;;;;;4974978;28;20514;-56
2021/12/08 05:51:53;;;;;;;5.60;2.63;;;;;;;;;;4970179;28;20038;-56
2021/12/08 05:54:32;;;;;;;4.63;2.07;;;;;;;;;;4969919;28;20026;-56
2021/12/08 05:57:05;;;;;;;3.80;2.20;;;;;;;;;;4984103;28;20828;-56
2021/12/08 05:59:32;;;;;;;5.00;2.60;;;;;;;;;;4989448;28;20077;-56
2021/12/08 06:02:06;;;;;;;6.30;2.40;;;;;;;;;;4994343;28;20377;-56
2021/12/08 06:04:33;;;;;;;4.27;2.10;;;;;;;;;;4955734;29;20059;-57
2021/12/08 06:07:00;;;;;;;3.67;2.33;;;;;;;;;;4984462;28;20481;-57
2021/12/08 06:09:27;;;;;;;4.30;2.40;;;;;;;;;;4994205;28;20786;-56
2021/12/08 06:11:55;;;;;;;4.97;1.90;;;;;;;;;;4993859;28;20034;-55
2021/12/08 06:14:24;;;;;;;3.57;2.10;;;;;;;;;;4971919;28;20478;-56
2021/12/08 06:16:54;;;;;;;2.73;1.73;;;;;;;;;;4989218;28;20038;-56
2021/12/08 06:19:21;;;;;;;4.27;2.10;;;;;;;;;;4973251;28;20437;-55
2021/12/08 06:21:49;;;;;;;4.20;2.10;;;;;;;;;;4988838;28;20038;-56
2021/12/08 06:24:17;;;;;;;5.60;2.10;;;;;;;;;;4976415;28;20023;-55
2021/12/08 06:26:44;;;;;;;4.27;2.27;;;;;;;;;;4992559;28;20042;-56
2021/12/08 06:29:12;;;;;;;6.03;2.57;;;;;;;;;;4992388;28;20413;-55
2021/12/08 06:31:40;;;;;;;3.80;2.40;;;;;;;;;;4974226;28;20506;-55
2021/12/08 06:34:08;;;;;;;4.27;2.50;;;;;;;;;;4956653;28;20489;-55
2021/12/08 06:36:37;;;;;;;7.30;2.90;;;;;;;;;;4967387;28;20031;-55
2021/12/08 06:39:07;;;;;;;4.67;2.53;;;;;;;;;;4977110;28;20065;-55
2021/12/08 06:41:37;;;;;;;4.80;2.23;;;;;;;;;;4949220;28;20035;-55
2021/12/08 06:44:08;;;;;;;5.83;2.77;;;;;;;;;;4933509;28;20035;-55
2021/12/08 06:46:36;;;;;;;13.10;2.90;;;;;;;;;;4971354;28;20102;-55
2021/12/08 06:49:05;;;;;;;5.07;3.27;;;;;;;;;;4973960;28;20494;-55
2021/12/08 06:52:00;;;;;;;8.97;3.43;;;;;;;;;;4989588;28;20039;-55
2021/12/08 06:54:33;;;;;;;4.47;2.17;;;;;;;;;;4971653;28;20039;-55
2021/12/08 06:57:11;;;;;;;4.17;1.90;;;;;;;;;;4972172;28;20025;-55
2021/12/08 06:59:51;;;;;;;6.47;3.13;;;;;;;;;;4968116;28;20468;-55
2021/12/08 07:02:36;;;;;;;5.23;2.27;;;;;;;;;;4968299;28;20027;-55
2021/12/08 07:05:23;;;;;;;4.38;2.35;;;;;;;;;;4948628;29;20046;-55
2021/12/08 07:07:52;;;;;;;4.30;2.23;;;;;;;;;;4950861;28;20032;-55
2021/12/08 07:10:39;;;;;;;5.10;2.77;;;;;;;;;;4953371;29;20051;-55
2021/12/08 07:13:14;;;;;;;5.00;2.70;;;;;;;;;;4952835;29;20035;-55
2021/12/08 07:15:41;;;;;;;3.03;1.90;;;;;;;;;;4957842;28;20031;-55
2021/12/08 07:18:12;;;;;;;5.00;2.57;;;;;;;;;;4992285;28;20049;-55
2021/12/08 07:20:43;;;;;;;4.80;2.40;;;;;;;;;;4982647;28;20100;-55
2021/12/08 07:23:23;;;;;;;4.20;2.50;;;;;;;;;;4967650;28;20030;-55
2021/12/08 07:25:51;;;;;;;6.33;2.57;;;;;;;;;;4967983;28;20227;-55
2021/12/08 07:28:21;;;;;;;6.60;2.97;;;;;;;;;;4964056;28;20121;-55
2021/12/08 07:30:50;;;;;;;5.70;3.20;;;;;;;;;;4991202;28;20034;-55
2021/12/08 07:33:17;;;;;;;5.00;3.17;;;;;;;;;;4992252;28;20062;-55
2021/12/08 07:35:49;;;;;;;8.33;2.80;;;;;;;;;;4990939;28;20739;-55
2021/12/08 07:38:17;;;;;;;5.27;2.90;;;;;;;;;;4991315;28;20612;-55
2021/12/08 07:40:50;;;;;;;4.77;2.10;;;;;;;;;;4975050;28;20043;-55
2021/12/08 07:43:20;;;;;;;11.17;2.80;;;;;;;;;;4967362;28;20054;-55
2021/12/08 07:45:54;;;;;;;7.27;3.00;;;;;;;;;;4967474;28;20027;-55
2021/12/08 07:48:26;;;;;;;4.10;2.60;;;;;;;;;;4967028;28;20050;-55
2021/12/08 07:50:57;;;;;;;4.20;2.70;;;;;;;;;;4968424;28;20041;-55
2021/12/08 07:53:25;;;;;;;5.67;2.67;;;;;;;;;;4991741;28;20033;-55
2021/12/08 07:55:58;;;;;;;3.83;2.40;;;;;;;;;;4991479;28;20042;-55
2021/12/08 07:58:25;;;;;;;5.47;2.67;;;;;;;;;;4991821;28;20033;-55
2021/12/08 08:00:54;;;;;;;4.37;2.30;;;;;;;;;;4991336;28;20754;-56
2021/12/08 08:03:22;;;;;;;3.80;2.23;;;;;;;;;;4983913;28;20737;-55
2021/12/08 08:05:50;;;;;;;4.33;2.50;;;;;;;;;;4967107;28;20019;-55
2021/12/08 08:08:18;;;;;;;4.83;3.03;;;;;;;;;;4967303;28;20477;-55
2021/12/08 08:10:49;;;;;;;4.07;2.17;;;;;;;;;;4980313;28;20299;-55
2021/12/08 08:13:18;;;;;;;3.60;1.90;;;;;;;;;;4986337;28;20264;-55
2021/12/08 08:15:48;;;;;;;3.87;2.13;;;;;;;;;;4991246;28;20264;-55
2021/12/08 08:18:18;;;;;;;8.10;3.20;;;;;;;;;;4991285;28;20034;-55
2021/12/08 08:20:48;;;;;;;4.40;2.70;;;;;;;;;;4982428;28;20486;-55
2021/12/08 08:23:16;;;;;;;4.33;2.30;;;;;;;;;;4975881;28;20666;-55
2021/12/08 08:25:44;;;;;;;4.60;2.60;;;;;;;;;;4976316;28;20340;-55
2021/12/08 08:28:11;;;;;;;5.60;2.30;;;;;;;;;;4971454;28;20261;-55
2021/12/08 08:30:43;;;;;;;4.93;2.43;;;;;;;;;;4971580;28;20297;-55
2021/12/08 08:33:11;;;;;;;5.50;2.63;;;;;;;;;;4987353;28;20306;-55
2021/12/08 08:35:40;;;;;;;6.53;3.77;;;;;;;;;;4990984;28;20256;-55
2021/12/08 08:38:09;;;;;;;5.13;3.00;;;;;;;;;;4996046;28;20254;-55
2021/12/08 08:40:46;;;;;;;6.10;3.27;;;;;;;;;;4995768;28;20319;-55
2021/12/08 08:43:13;;;;;;;7.10;2.83;;;;;;;;;;4995213;28;20743;-55
2021/12/08 08:45:44;;;;;;;7.47;3.67;;;;;;;;;;4995089;28;20275;-55
2021/12/08 08:48:13;;;;;;;12.73;3.10;;;;;;;;;;4994948;28;20319;-55
2021/12/08 08:50:39;;;;;;;6.53;3.37;;;;;;;;;;4990432;28;20292;-55
2021/12/08 08:53:07;;;;;;;5.27;3.27;;;;;;;;;;4990345;28;20949;-55
2021/12/08 08:55:55;;;;;;;5.63;3.50;;;;;;;;;;4987171;28;20651;-55
2021/12/08 08:58:24;;;;;;;5.43;3.13;;;;;;;;;;4972154;28;20276;-55
2021/12/08 09:00:54;;;;;;;4.30;2.50;;;;;;;;;;4976217;28;20620;-55
2021/12/08 09:03:23;;;;;;;6.03;3.17;;;;;;;;;;4975940;28;20257;-55
2021/12/08 09:05:54;;;;;;;7.13;3.50;;;;;;;;;;4976033;28;20261;-55
2021/12/08 09:08:23;;;;;;;6.90;3.33;;;;;;;;;;4985580;28;20272;-55
2021/12/08 09:11:02;;;;;;;6.97;2.67;;;;;;;;;;4993358;28;20331;-55
2021/12/08 09:13:38;;;;;;;7.90;3.30;;;;;;;;;;4990116;28;20263;-55
2021/12/08 09:16:08;;;;;;;7.37;2.93;;;;;;;;;;4990142;28;20759;-55
2021/12/08 09:18:53;;;;;;;5.77;3.07;;;;;;;;;;4990124;28;20331;-55
2021/12/08 09:21:24;;;;;;;5.22;2.95;;;;;;;;;;4975122;28;20265;-55
2021/12/08 09:23:57;;;;;;;6.17;3.43;;;;;;;;;;4975570;28;20031;-55
2021/12/08 09:26:26;;;;;;;7.17;3.10;;;;;;;;;;4975541;28;20261;-55
2021/12/08 09:28:58;;;;;;;6.20;3.83;;;;;;;;;;4975665;28;20308;-55
2021/12/08 09:31:33;;;;;;;5.43;3.43;;;;;;;;;;4975332;28;20292;-55
2021/12/08 09:34:13;;;;;;;5.40;2.72;;;;;;;;;;4952326;29;21135;-55
2021/12/08 09:36:46;;;;;;;6.50;3.60;;;;;;;;;;4951052;29;20043;-55
2021/12/08 09:39:21;;;;;;;11.00;3.90;;;;;;;;;;4952641;28;20269;-55
2021/12/08 09:42:03;;;;;;;7.68;3.28;;;;;;;;;;4950741;29;20253;-55
2021/12/08 09:44:32;;;;;;;5.07;2.83;;;;;;;;;;4955598;29;20513;-54
2021/12/08 09:46:59;;;;;;;5.50;2.93;;;;;;;;;;4956365;29;20270;-54
2021/12/08 09:49:28;;;;;;;6.00;3.20;;;;;;;;;;4959560;28;20254;-55
2021/12/08 09:51:57;;;;;;;6.77;2.53;;;;;;;;;;4994592;28;20635;-55
2021/12/08 09:54:24;;;;;;;4.20;2.27;;;;;;;;;;4994928;28;20288;-54
2021/12/08 09:56:53;;;;;;;4.33;2.40;;;;;;;;;;4989070;28;20286;-55
2021/12/08 09:59:20;;;;;;;7.80;3.07;;;;;;;;;;4989364;28;20276;-54
2021/12/08 10:01:48;;;;;;;4.87;2.63;;;;;;;;;;4984669;28;21006;-55
2021/12/08 10:04:15;;;;;;;5.20;2.40;;;;;;;;;;4970507;28;20276;-54
2021/12/08 10:06:48;;;;;;;4.60;3.03;;;;;;;;;;4974362;28;20261;-54
2021/12/08 10:09:15;;;;;;;4.10;2.20;;;;;;;;;;4974669;28;20275;-55
2021/12/08 10:11:42;;;;;;;5.30;2.63;;;;;;;;;;4974620;28;20718;-55
2021/12/08 10:14:09;;;;;;;8.03;3.57;;;;;;;;;;4981399;28;20268;-54
2021/12/08 10:16:36;;;;;;;5.53;3.43;;;;;;;;;;4975179;28;20275;-55
2021/12/08 10:19:04;;;;;;;6.47;2.70;;;;;;;;;;4969616;28;20736;-55
2021/12/08 10:21:38;;;;;;;4.70;3.00;;;;;;;;;;4969743;28;20264;-55
2021/12/08 10:24:19;;;;;;;7.95;2.85;;;;;;;;;;4969436;28;20261;-54
2021/12/08 10:26:46;;;;;;;5.20;2.80;;;;;;;;;;4988026;28;20497;-54
2021/12/08 10:29:13;;;;;;;5.10;2.90;;;;;;;;;;4994098;28;20727;-54
2021/12/08 10:31:44;;;;;;;6.13;3.30;;;;;;;;;;4993809;28;20438;-54
2021/12/08 10:34:23;;;;;;;5.43;3.00;;;;;;;;;;4993530;28;20343;-55
2021/12/08 10:36:50;;;;;;;5.50;2.97;;;;;;;;;;4989750;28;21843;-54
2021/12/08 10:39:19;;;;;;;4.60;2.60;;;;;;;;;;4973541;28;20257;-54
2021/12/08 10:41:48;;;;;;;8.30;3.30;;;;;;;;;;4968657;28;20891;-54
2021/12/08 10:44:15;;;;;;;5.87;2.87;;;;;;;;;;4968994;28;20327;-55
2021/12/08 10:46:42;;;;;;;6.73;3.27;;;;;;;;;;4968826;28;20319;-55
2021/12/08 10:49:26;;;;;;;4.53;2.80;;;;;;;;;;4976655;28;20268;-55
2021/12/08 10:54:38;;;;;;;5.68;3.15;;;;;;;;;;4993565;28;20298;-54
2021/12/08 10:57:25;;;;;;;5.07;2.53;;;;;;;;;;4993611;28;20065;-55
2021/12/08 10:59:52;;;;;;;3.53;2.20;;;;;;;;;;4993443;28;20260;-54
2021/12/08 11:02:37;;;;;;;5.43;2.47;;;;;;;;;;4974103;28;20716;-55
2021/12/08 11:05:05;;;;;;;5.13;2.85;;;;;;;;;;4988207;28;20268;-55
2021/12/08 11:07:32;;;;;;;4.87;2.37;;;;;;;;;;4988064;28;20089;-54
2021/12/08 11:09:59;;;;;;;5.40;2.60;;;;;;;;;;4988027;28;20259;-54
2021/12/08 11:12:41;;;;;;;5.00;2.17;;;;;;;;;;4988613;28;20257;-55
2021/12/08 11:15:22;;;;;;;3.73;2.17;;;;;;;;;;4973413;28;20286;-54
2021/12/08 11:17:49;;;;;;;3.77;2.20;;;;;;;;;;4973863;28;20826;-54
2021/12/08 11:20:20;;;;;;;5.33;2.67;;;;;;;;;;4973886;28;20825;-55
2021/12/08 11:22:59;;;;;;;4.30;2.50;;;;;;;;;;4977039;28;20272;-54
2021/12/08 11:25:39;;;;;;;7.57;2.47;;;;;;;;;;4988375;28;20271;-55
2021/12/08 11:28:29;;;;;;;5.50;2.33;;;;;;;;;;4987771;28;20719;-54
2021/12/08 11:31:04;;;;;;;5.67;2.70;;;;;;;;;;4987510;28;20303;-54
2021/12/08 11:33:31;;;;;;;3.45;1.73;;;;;;;;;;4987808;28;20272;-55
2021/12/08 11:36:20;;;;;;;5.23;2.80;;;;;;;;;;4982062;28;20057;-54
2021/12/08 11:38:48;;;;;;;4.97;2.57;;;;;;;;;;4973622;28;20271;-54
2021/12/08 11:41:36;;;;;;;4.90;2.60;;;;;;;;;;4972978;28;20257;-55
2021/12/08 11:44:05;;;;;;;6.67;2.37;;;;;;;;;;4973462;28;20272;-54
2021/12/08 11:46:34;;;;;;;6.23;2.90;;;;;;;;;;4971425;28;20267;-54
2021/12/08 11:49:04;;;;;;;4.77;2.47;;;;;;;;;;4987260;28;20286;-54
2021/12/08 11:51:49;;;;;;;5.97;2.90;;;;;;;;;;4987338;28;20430;-54
2021/12/08 11:54:33;;;;;;;4.37;2.57;;;;;;;;;;4989250;28;20262;-54
2021/12/08 11:57:10;;;;;;;4.63;2.30;;;;;;;;;;4994249;28;20295;-55
2021/12/08 11:59:59;;;;;;;6.40;2.70;;;;;;;;;;4988946;28;20038;-55
2021/12/08 12:02:31;;;;;;;4.53;2.30;;;;;;;;;;4959944;28;20676;-54
2021/12/08 12:04:58;;;;;;;3.00;1.80;;;;;;;;;;4977240;28;20824;-54
2021/12/08 12:07:25;;;;;;;3.87;2.13;;;;;;;;;;4976911;28;20329;-54
2021/12/08 12:09:52;;;;;;;5.97;2.40;;;;;;;;;;4972640;28;20257;-55
2021/12/08 12:12:19;;;;;;;4.73;2.93;;;;;;;;;;4986782;28;20611;-54
2021/12/08 12:14:47;;;;;;;4.23;2.13;;;;;;;;;;4991200;28;20268;-54
2021/12/08 12:17:14;;;;;;;4.63;2.43;;;;;;;;;;4991197;28;20268;-54
2021/12/08 12:19:43;;;;;;;4.33;2.57;;;;;;;;;;4994929;28;20265;-54
2021/12/08 12:22:29;;;;;;;4.67;2.40;;;;;;;;;;4995995;28;20339;-54
2021/12/08 12:25:18;;;;;;;3.85;2.05;;;;;;;;;;4976996;28;20256;-54
2021/12/08 12:27:48;;;;;;;4.50;2.57;;;;;;;;;;4976763;28;20099;-54
2021/12/08 12:30:41;;;;;;;3.80;2.00;;;;;;;;;;4976063;28;20319;-54
2021/12/08 12:33:18;;;;;;;5.70;3.00;;;;;;;;;;4941876;28;20289;-54
2021/12/08 12:35:51;;;;;;;7.97;2.73;;;;;;;;;;4982738;28;20387;-55
2021/12/08 12:38:19;;;;;;;4.73;2.63;;;;;;;;;;4991017;28;20256;-54
2021/12/08 12:40:47;;;;;;;5.70;2.90;;;;;;;;;;4992215;28;20302;-54
2021/12/08 12:43:25;;;;;;;5.73;2.37;;;;;;;;;;4996118;28;20256;-54
2021/12/08 12:46:01;;;;;;;3.93;2.43;;;;;;;;;;4995867;28;20266;-54
2021/12/08 12:48:30;;;;;;;5.60;3.00;;;;;;;;;;4977971;28;20276;-54
2021/12/08 12:51:01;;;;;;;9.87;3.87;;;;;;;;;;4976316;28;20288;-54
2021/12/08 12:53:49;;;;;;;7.63;3.20;;;;;;;;;;4973602;28;20261;-54
2021/12/08 12:56:28;;;;;;;10.97;3.70;;;;;;;;;;4970941;28;20271;-54
2021/12/08 12:58:56;;;;;;;11.80;3.07;;;;;;;;;;4976908;28;20264;-54
2021/12/08 13:01:32;;;;;;;8.03;3.27;;;;;;;;;;4990459;28;20335;-54
2021/12/08 13:04:04;;;;;;;10.00;3.63;;;;;;;;;;4993827;28;20255;-54
2021/12/08 13:06:41;;;;;;;4.90;2.67;;;;;;;;;;4983565;28;20292;-54
2021/12/08 13:09:10;;;;;;;9.43;2.60;;;;;;;;;;4976319;28;20328;-54
2021/12/08 13:14:27;;;;;;;7.73;3.77;;;;;;;;;;5016068;23;20370;-56
2021/12/08 13:17:12;;;;;;;5.63;3.47;;;;;;;;;;4975937;28;20256;-56
2021/12/08 13:19:40;;;;;;;6.43;3.78;;;;;;;;;;4975878;28;20742;-56
2021/12/08 13:22:07;;;;;;;8.03;4.13;;;;;;;;;;4975720;28;20038;-56
2021/12/08 13:24:43;;;;;;;8.23;4.27;;;;;;;;;;4974232;28;20586;-56
2021/12/08 13:27:11;;;;;;;7.97;5.10;;;;;;;;;;4970501;28;20288;-56
2021/12/08 13:29:45;;;;;;;8.60;5.50;;;;;;;;;;4970318;28;20260;-57
2021/12/08 13:32:26;;;;;;;9.40;5.17;;;;;;;;;;4970274;28;20289;-57
2021/12/08 13:34:57;;;;;;;7.77;4.63;;;;;;;;;;4971766;28;20268;-56
2021/12/08 13:37:25;;;;;;;10.63;4.87;;;;;;;;;;4975449;28;20257;-57
2021/12/08 13:39:53;;;;;;;10.50;5.73;;;;;;;;;;4975684;28;20261;-56
2021/12/08 13:42:27;;;;;;;9.20;6.20;;;;;;;;;;4975524;28;20265;-56
2021/12/08 13:44:56;;;;;;;11.13;5.10;;;;;;;;;;4975457;28;20267;-57
2021/12/08 13:47:24;;;;;;;7.17;4.37;;;;;;;;;;4972068;28;20265;-56
2021/12/08 13:49:52;;;;;;;9.93;4.17;;;;;;;;;;4970105;28;20252;-56
2021/12/08 13:52:20;;;;;;;6.73;4.03;;;;;;;;;;4969830;28;20269;-57
2021/12/08 13:54:57;;;;;;;13.37;8.00;;;;;;;;;;4969981;28;20296;-56
2021/12/08 13:57:30;;;;;;;21.53;14.03;;;;;;;;;;4972630;28;20265;-57
2021/12/08 13:59:59;;;;;;;15.20;10.07;;;;;;;;;;4975121;28;20707;-57
2021/12/08 14:02:28;;;;;;;20.80;15.80;;;;;;;;;;4975356;28;20260;-57
2021/12/08 14:05:02;;;;;;;22.40;14.43;;;;;;;;;;4975062;28;21567;-57
2021/12/08 14:07:29;;;;;;;12.60;6.05;;;;;;;;;;4975141;28;20023;-57
2021/12/08 14:09:57;;;;;;;8.60;5.40;;;;;;;;;;4971005;28;20054;-57
2021/12/08 14:12:24;;;;;;;7.40;4.60;;;;;;;;;;4968978;28;20029;-56
2021/12/08 14:14:58;;;;;;;8.30;4.67;;;;;;;;;;4969286;28;20039;-57
2021/12/08 14:17:29;;;;;;;7.35;4.72;;;;;;;;;;4968062;28;20066;-57
2021/12/08 14:19:56;;;;;;;9.60;6.27;;;;;;;;;;4972662;28;20025;-57
2021/12/08 14:22:35;;;;;;;11.67;6.93;;;;;;;;;;4974715;28;20031;-57
2021/12/08 14:25:02;;;;;;;15.60;7.40;;;;;;;;;;4974770;28;20027;-57
2021/12/08 14:27:32;;;;;;;14.23;7.50;;;;;;;;;;4974644;28;20019;-57
2021/12/08 14:29:59;;;;;;;10.43;6.50;;;;;;;;;;4974538;28;20026;-57
2021/12/08 14:32:26;;;;;;;10.90;6.97;;;;;;;;;;4970038;28;20026;-57
2021/12/08 14:34:53;;;;;;;10.30;6.63;;;;;;;;;;4969054;28;20482;-57
2021/12/08 14:37:20;;;;;;;15.33;6.80;;;;;;;;;;4968456;28;20030;-57
2021/12/08 14:39:52;;;;;;;9.90;5.00;;;;;;;;;;4968828;28;20062;-58
2021/12/08 14:42:23;;;;;;;13.50;5.33;;;;;;;;;;4972817;28;20101;-57
2021/12/08 14:44:53;;;;;;;13.63;6.53;;;;;;;;;;4974395;28;20023;-57
2021/12/08 14:47:24;;;;;;;15.07;7.57;;;;;;;;;;4974207;28;20031;-57
2021/12/08 14:49:55;;;;;;;9.97;6.00;;;;;;;;;;4973812;28;20512;-57
2021/12/08 14:52:22;;;;;;;12.67;6.27;;;;;;;;;;4974308;28;20555;-58
2021/12/08 14:54:51;;;;;;;16.63;6.97;;;;;;;;;;4968878;28;20046;-57
2021/12/08 14:57:20;;;;;;;13.17;6.67;;;;;;;;;;4968758;28;20089;-58
2021/12/08 14:59:59;;;;;;;11.93;6.57;;;;;;;;;;4968613;28;20049;-57
2021/12/08 15:02:30;;;;;;;11.17;6.13;;;;;;;;;;4968427;28;20027;-58
2021/12/08 15:05:00;;;;;;;15.23;7.30;;;;;;;;;;4973655;28;20031;-58
2021/12/08 15:07:28;;;;;;;10.73;6.77;;;;;;;;;;4973822;28;20019;-58
2021/12/08 15:09:58;;;;;;;12.63;7.03;;;;;;;;;;4973842;28;20023;-57
2021/12/08 15:12:25;;;;;;;10.10;6.37;;;;;;;;;;4973533;28;20035;-57
2021/12/08 15:14:51;;;;;;;10.37;6.47;;;;;;;;;;4973503;28;20030;-57
2021/12/08 15:17:31;;;;;;;11.50;5.70;;;;;;;;;;4968308;28;20038;-58
2021/12/08 15:19:59;;;;;;;11.60;6.50;;;;;;;;;;4968306;28;20027;-58
2021/12/08 15:22:37;;;;;;;10.67;5.73;;;;;;;;;;4968378;28;20027;-58
2021/12/08 15:25:09;;;;;;;14.13;6.50;;;;;;;;;;4968427;28;20033;-58
2021/12/08 15:27:38;;;;;;;17.13;8.17;;;;;;;;;;4973593;28;20023;-57
2021/12/08 15:30:09;;;;;;;14.93;7.63;;;;;;;;;;4973289;28;20033;-58
2021/12/08 15:32:36;;;;;;;11.47;7.07;;;;;;;;;;4973562;28;20031;-58
2021/12/08 15:35:07;;;;;;;13.03;7.40;;;;;;;;;;4973706;28;20054;-58
2021/12/08 15:37:36;;;;;;;11.50;6.73;;;;;;;;;;4971891;28;20095;-58
2021/12/08 15:40:04;;;;;;;10.17;6.43;;;;;;;;;;4967908;28;20030;-58
2021/12/08 15:42:32;;;;;;;16.60;7.00;;;;;;;;;;4968108;28;20023;-58
2021/12/08 15:45:06;;;;;;;11.77;6.67;;;;;;;;;;4968084;28;20440;-58
2021/12/08 15:47:36;;;;;;;14.13;7.50;;;;;;;;;;4969152;28;20409;-58
2021/12/08 15:50:23;;;;;;;13.33;7.13;;;;;;;;;;4973339;28;20069;-58